sensor_id;sensor_type;location;lat;lon;timestamp;temperature;humidity
68912;SHT31;55953;51.650;-0.522;2023-02-28T00:01:32;2.07;81.98
68912;SHT31;55953;51.650;-0.522;2023-02-28T00:04:00;2.07;81.79
68912;SHT31;55953;51.650;-0.522;2023-02-28T00:06:28;2.04;81.81
68912;SHT31;55953;51.650;-0.522;2023-02-28T00:08:57;2.04;82.20
68912;SHT31;55953;51.650;-0.522;2023-02-28T00:11:24;2.01;82.71
68912;SHT31;55953;51.650;-0.522;2023-02-28T00:13:53;2.02;82.93
68912;SHT31;55953;51.650;-0.522;2023-02-28T00:16:21;2.02;83.28
68912;SHT31;55953;51.650;-0.522;2023-02-28T00:18:50;2.05;83.51
68912;SHT31;55953;51.650;-0.522;2023-02-28T00:21:19;2.06;83.33
68912;SHT31;55953;51.650;-0.522;2023-02-28T00:23:47;2.05;83.70
68912;SHT31;55953;51.650;-0.522;2023-02-28T00:26:15;2.04;83.48
68912;SHT31;55953;51.650;-0.522;2023-02-28T00:28:45;2.04;83.49
68912;SHT31;55953;51.650;-0.522;2023-02-28T00:31:13;2.03;84.15
68912;SHT31;55953;51.650;-0.522;2023-02-28T00:33:41;2.02;84.41
68912;SHT31;55953;51.650;-0.522;2023-02-28T00:36:10;2.01;84.21
68912;SHT31;55953;51.650;-0.522;2023-02-28T00:38:39;2.03;84.56
68912;SHT31;55953;51.650;-0.522;2023-02-28T00:41:08;2.02;83.82
68912;SHT31;55953;51.650;-0.522;2023-02-28T00:43:37;2.00;84.16
68912;SHT31;55953;51.650;-0.522;2023-02-28T00:46:06;2.00;84.18
68912;SHT31;55953;51.650;-0.522;2023-02-28T00:48:35;2.00;84.34
68912;SHT31;55953;51.650;-0.522;2023-02-28T00:51:04;1.99;84.01
68912;SHT31;55953;51.650;-0.522;2023-02-28T00:53:32;1.98;84.70
68912;SHT31;55953;51.650;-0.522;2023-02-28T00:56:00;1.99;84.62
68912;SHT31;55953;51.650;-0.522;2023-02-28T00:58:28;1.98;84.51
68912;SHT31;55953;51.650;-0.522;2023-02-28T01:00:57;1.97;84.73
68912;SHT31;55953;51.650;-0.522;2023-02-28T01:03:25;1.98;84.95
68912;SHT31;55953;51.650;-0.522;2023-02-28T01:05:52;1.97;85.25
68912;SHT31;55953;51.650;-0.522;2023-02-28T01:08:20;1.98;85.64
68912;SHT31;55953;51.650;-0.522;2023-02-28T01:10:50;1.99;85.54
68912;SHT31;55953;51.650;-0.522;2023-02-28T01:13:18;1.99;85.26
68912;SHT31;55953;51.650;-0.522;2023-02-28T01:15:51;1.98;85.78
68912;SHT31;55953;51.650;-0.522;2023-02-28T01:18:22;2.01;85.14
68912;SHT31;55953;51.650;-0.522;2023-02-28T01:20:50;2.03;84.94
68912;SHT31;55953;51.650;-0.522;2023-02-28T01:23:20;2.07;84.85
68912;SHT31;55953;51.650;-0.522;2023-02-28T01:25:51;2.07;85.43
68912;SHT31;55953;51.650;-0.522;2023-02-28T01:28:19;2.12;85.77
68912;SHT31;55953;51.650;-0.522;2023-02-28T01:30:51;2.15;85.73
68912;SHT31;55953;51.650;-0.522;2023-02-28T01:33:19;2.17;86.16
68912;SHT31;55953;51.650;-0.522;2023-02-28T01:35:47;2.20;85.69
68912;SHT31;55953;51.650;-0.522;2023-02-28T01:38:15;2.22;85.92
68912;SHT31;55953;51.650;-0.522;2023-02-28T01:40:50;2.25;85.62
68912;SHT31;55953;51.650;-0.522;2023-02-28T01:43:28;2.26;85.81
68912;SHT31;55953;51.650;-0.522;2023-02-28T01:45:59;2.27;85.96
68912;SHT31;55953;51.650;-0.522;2023-02-28T01:48:28;2.29;86.18
68912;SHT31;55953;51.650;-0.522;2023-02-28T01:51:07;2.30;86.40
68912;SHT31;55953;51.650;-0.522;2023-02-28T01:53:46;2.29;86.07
68912;SHT31;55953;51.650;-0.522;2023-02-28T01:56:21;2.30;85.87
68912;SHT31;55953;51.650;-0.522;2023-02-28T01:58:56;2.28;85.61
68912;SHT31;55953;51.650;-0.522;2023-02-28T02:01:25;2.27;85.88
68912;SHT31;55953;51.650;-0.522;2023-02-28T02:03:57;2.26;85.94
68912;SHT31;55953;51.650;-0.522;2023-02-28T02:06:29;2.24;85.86
68912;SHT31;55953;51.650;-0.522;2023-02-28T02:09:10;2.22;85.57
68912;SHT31;55953;51.650;-0.522;2023-02-28T02:11:40;2.20;85.44
68912;SHT31;55953;51.650;-0.522;2023-02-28T02:14:12;2.18;85.27
68912;SHT31;55953;51.650;-0.522;2023-02-28T02:25:43;2.06;85.02
68912;SHT31;55953;51.650;-0.522;2023-02-28T02:37:15;1.98;84.64
68912;SHT31;55953;51.650;-0.522;2023-02-28T02:39:54;1.94;84.61
68912;SHT31;55953;51.650;-0.522;2023-02-28T02:42:32;1.86;84.66
68912;SHT31;55953;51.650;-0.522;2023-02-28T02:47:55;1.84;85.00
68912;SHT31;55953;51.650;-0.522;2023-02-28T02:50:31;1.81;85.42
68912;SHT31;55953;51.650;-0.522;2023-02-28T02:53:06;1.77;85.13
68912;SHT31;55953;51.650;-0.522;2023-02-28T02:55:38;1.73;85.07
68912;SHT31;55953;51.650;-0.522;2023-02-28T02:58:16;1.71;85.22
68912;SHT31;55953;51.650;-0.522;2023-02-28T03:00:52;1.70;85.25
68912;SHT31;55953;51.650;-0.522;2023-02-28T03:03:25;1.68;85.33
68912;SHT31;55953;51.650;-0.522;2023-02-28T03:05:58;1.66;85.14
68912;SHT31;55953;51.650;-0.522;2023-02-28T03:08:29;1.64;85.50
68912;SHT31;55953;51.650;-0.522;2023-02-28T03:11:04;1.63;85.17
68912;SHT31;55953;51.650;-0.522;2023-02-28T03:28:18;1.62;86.09
68912;SHT31;55953;51.650;-0.522;2023-02-28T03:31:19;1.62;85.81
68912;SHT31;55953;51.650;-0.522;2023-02-28T03:36:41;1.63;85.81
68912;SHT31;55953;51.650;-0.522;2023-02-28T03:39:23;1.65;85.78
68912;SHT31;55953;51.650;-0.522;2023-02-28T03:42:25;1.70;85.87
68912;SHT31;55953;51.650;-0.522;2023-02-28T03:44:59;1.73;85.89
68912;SHT31;55953;51.650;-0.522;2023-02-28T03:50:24;1.78;85.66
68912;SHT31;55953;51.650;-0.522;2023-02-28T03:53:04;1.82;85.79
68912;SHT31;55953;51.650;-0.522;2023-02-28T03:55:39;1.86;85.85
68912;SHT31;55953;51.650;-0.522;2023-02-28T03:58:27;1.94;86.25
68912;SHT31;55953;51.650;-0.522;2023-02-28T04:01:22;2.01;86.30
68912;SHT31;55953;51.650;-0.522;2023-02-28T04:03:59;2.05;85.95
68912;SHT31;55953;51.650;-0.522;2023-02-28T04:06:27;2.05;85.76
68912;SHT31;55953;51.650;-0.522;2023-02-28T04:09:00;2.06;85.51
68912;SHT31;55953;51.650;-0.522;2023-02-28T04:14:04;2.11;85.29
68912;SHT31;55953;51.650;-0.522;2023-02-28T04:16:35;2.10;85.11
68912;SHT31;55953;51.650;-0.522;2023-02-28T04:19:07;2.08;84.98
68912;SHT31;55953;51.650;-0.522;2023-02-28T04:21:38;2.09;85.03
68912;SHT31;55953;51.650;-0.522;2023-02-28T04:24:11;2.10;84.96
68912;SHT31;55953;51.650;-0.522;2023-02-28T04:26:43;2.05;84.84
68912;SHT31;55953;51.650;-0.522;2023-02-28T04:29:24;2.00;85.00
68912;SHT31;55953;51.650;-0.522;2023-02-28T04:31:56;2.01;85.73
68912;SHT31;55953;51.650;-0.522;2023-02-28T04:34:27;2.03;85.56
68912;SHT31;55953;51.650;-0.522;2023-02-28T04:36:58;2.02;85.94
68912;SHT31;55953;51.650;-0.522;2023-02-28T04:39:43;1.97;85.85
68912;SHT31;55953;51.650;-0.522;2023-02-28T04:42:11;1.96;86.13
68912;SHT31;55953;51.650;-0.522;2023-02-28T04:44:40;1.97;87.00
68912;SHT31;55953;51.650;-0.522;2023-02-28T04:47:08;1.98;86.69
68912;SHT31;55953;51.650;-0.522;2023-02-28T04:49:36;1.97;87.05
68912;SHT31;55953;51.650;-0.522;2023-02-28T04:52:04;1.98;87.51
68912;SHT31;55953;51.650;-0.522;2023-02-28T04:54:34;1.98;87.56
68912;SHT31;55953;51.650;-0.522;2023-02-28T04:57:02;1.98;87.97
68912;SHT31;55953;51.650;-0.522;2023-02-28T04:59:31;1.97;87.44
68912;SHT31;55953;51.650;-0.522;2023-02-28T05:02:00;1.93;88.11
68912;SHT31;55953;51.650;-0.522;2023-02-28T05:04:34;1.91;87.78
68912;SHT31;55953;51.650;-0.522;2023-02-28T05:07:03;1.87;88.27
68912;SHT31;55953;51.650;-0.522;2023-02-28T05:09:31;1.83;89.04
68912;SHT31;55953;51.650;-0.522;2023-02-28T05:12:00;1.81;89.20
68912;SHT31;55953;51.650;-0.522;2023-02-28T05:14:28;1.78;89.27
68912;SHT31;55953;51.650;-0.522;2023-02-28T05:16:56;1.75;89.34
68912;SHT31;55953;51.650;-0.522;2023-02-28T05:19:24;1.76;89.64
68912;SHT31;55953;51.650;-0.522;2023-02-28T05:21:53;1.77;89.05
68912;SHT31;55953;51.650;-0.522;2023-02-28T05:24:22;1.81;89.14
68912;SHT31;55953;51.650;-0.522;2023-02-28T05:26:51;1.86;90.23
68912;SHT31;55953;51.650;-0.522;2023-02-28T05:29:21;1.91;90.14
68912;SHT31;55953;51.650;-0.522;2023-02-28T05:31:50;1.97;90.06
68912;SHT31;55953;51.650;-0.522;2023-02-28T05:34:18;2.01;90.28
68912;SHT31;55953;51.650;-0.522;2023-02-28T05:36:46;2.06;90.60
68912;SHT31;55953;51.650;-0.522;2023-02-28T05:39:14;2.11;90.17
68912;SHT31;55953;51.650;-0.522;2023-02-28T05:41:42;2.14;90.16
68912;SHT31;55953;51.650;-0.522;2023-02-28T05:44:11;2.17;90.23
68912;SHT31;55953;51.650;-0.522;2023-02-28T05:46:39;2.19;90.23
68912;SHT31;55953;51.650;-0.522;2023-02-28T05:49:07;2.19;90.19
68912;SHT31;55953;51.650;-0.522;2023-02-28T05:51:35;2.20;89.94
68912;SHT31;55953;51.650;-0.522;2023-02-28T05:54:07;2.18;89.90
68912;SHT31;55953;51.650;-0.522;2023-02-28T05:56:35;2.18;89.61
68912;SHT31;55953;51.650;-0.522;2023-02-28T05:59:06;2.14;89.52
68912;SHT31;55953;51.650;-0.522;2023-02-28T06:01:41;2.11;89.44
68912;SHT31;55953;51.650;-0.522;2023-02-28T06:04:18;2.08;89.20
68912;SHT31;55953;51.650;-0.522;2023-02-28T06:06:58;2.06;89.00
68912;SHT31;55953;51.650;-0.522;2023-02-28T06:09:26;2.05;88.74
68912;SHT31;55953;51.650;-0.522;2023-02-28T06:11:54;2.04;88.93
68912;SHT31;55953;51.650;-0.522;2023-02-28T06:14:24;2.03;88.78
68912;SHT31;55953;51.650;-0.522;2023-02-28T06:16:53;2.01;88.86
68912;SHT31;55953;51.650;-0.522;2023-02-28T06:19:22;1.96;89.07
68912;SHT31;55953;51.650;-0.522;2023-02-28T06:21:53;1.94;88.95
68912;SHT31;55953;51.650;-0.522;2023-02-28T06:24:25;1.92;89.09
68912;SHT31;55953;51.650;-0.522;2023-02-28T06:26:55;1.91;88.98
68912;SHT31;55953;51.650;-0.522;2023-02-28T06:29:23;1.89;88.92
68912;SHT31;55953;51.650;-0.522;2023-02-28T06:31:51;1.89;88.54
68912;SHT31;55953;51.650;-0.522;2023-02-28T06:34:19;1.88;88.31
68912;SHT31;55953;51.650;-0.522;2023-02-28T06:36:46;1.84;88.13
68912;SHT31;55953;51.650;-0.522;2023-02-28T06:39:19;1.79;87.96
68912;SHT31;55953;51.650;-0.522;2023-02-28T06:41:47;1.75;87.96
68912;SHT31;55953;51.650;-0.522;2023-02-28T06:44:22;1.72;87.92
68912;SHT31;55953;51.650;-0.522;2023-02-28T06:46:51;1.71;87.89
68912;SHT31;55953;51.650;-0.522;2023-02-28T06:49:19;1.74;88.17
68912;SHT31;55953;51.650;-0.522;2023-02-28T06:51:47;1.78;87.91
68912;SHT31;55953;51.650;-0.522;2023-02-28T06:54:15;1.79;88.05
68912;SHT31;55953;51.650;-0.522;2023-02-28T06:56:43;1.78;88.20
68912;SHT31;55953;51.650;-0.522;2023-02-28T06:59:11;1.79;87.81
68912;SHT31;55953;51.650;-0.522;2023-02-28T07:01:39;1.82;87.96
68912;SHT31;55953;51.650;-0.522;2023-02-28T07:04:07;1.88;88.12
68912;SHT31;55953;51.650;-0.522;2023-02-28T07:06:35;1.91;88.01
68912;SHT31;55953;51.650;-0.522;2023-02-28T07:09:03;1.94;88.10
68912;SHT31;55953;51.650;-0.522;2023-02-28T07:11:31;1.99;88.27
68912;SHT31;55953;51.650;-0.522;2023-02-28T07:13:59;2.04;87.83
68912;SHT31;55953;51.650;-0.522;2023-02-28T07:16:27;2.07;88.11
68912;SHT31;55953;51.650;-0.522;2023-02-28T07:18:55;2.14;87.99
68912;SHT31;55953;51.650;-0.522;2023-02-28T07:21:23;2.18;87.80
68912;SHT31;55953;51.650;-0.522;2023-02-28T07:23:51;2.20;87.82
68912;SHT31;55953;51.650;-0.522;2023-02-28T07:26:19;2.23;87.88
68912;SHT31;55953;51.650;-0.522;2023-02-28T07:28:48;2.30;87.65
68912;SHT31;55953;51.650;-0.522;2023-02-28T07:31:17;2.36;87.41
68912;SHT31;55953;51.650;-0.522;2023-02-28T07:33:46;2.39;87.29
68912;SHT31;55953;51.650;-0.522;2023-02-28T07:36:15;2.46;87.18
68912;SHT31;55953;51.650;-0.522;2023-02-28T07:38:46;2.58;87.08
68912;SHT31;55953;51.650;-0.522;2023-02-28T07:41:18;2.68;86.96
68912;SHT31;55953;51.650;-0.522;2023-02-28T07:43:49;2.80;86.71
68912;SHT31;55953;51.650;-0.522;2023-02-28T07:46:18;2.90;86.54
68912;SHT31;55953;51.650;-0.522;2023-02-28T07:48:48;3.02;86.40
68912;SHT31;55953;51.650;-0.522;2023-02-28T07:51:16;3.12;86.30
68912;SHT31;55953;51.650;-0.522;2023-02-28T07:53:44;3.29;86.24
68912;SHT31;55953;51.650;-0.522;2023-02-28T07:56:12;3.46;85.90
68912;SHT31;55953;51.650;-0.522;2023-02-28T07:58:40;3.61;85.52
68912;SHT31;55953;51.650;-0.522;2023-02-28T08:01:08;3.73;85.22
68912;SHT31;55953;51.650;-0.522;2023-02-28T08:03:38;3.85;84.85
68912;SHT31;55953;51.650;-0.522;2023-02-28T08:06:08;3.98;84.53
68912;SHT31;55953;51.650;-0.522;2023-02-28T08:08:44;4.15;83.95
68912;SHT31;55953;51.650;-0.522;2023-02-28T08:11:13;4.32;83.39
68912;SHT31;55953;51.650;-0.522;2023-02-28T08:13:42;4.47;82.97
68912;SHT31;55953;51.650;-0.522;2023-02-28T08:16:12;4.59;82.23
68912;SHT31;55953;51.650;-0.522;2023-02-28T08:18:49;4.72;82.09
68912;SHT31;55953;51.650;-0.522;2023-02-28T08:21:19;4.80;82.03
68912;SHT31;55953;51.650;-0.522;2023-02-28T08:23:48;4.84;82.24
68912;SHT31;55953;51.650;-0.522;2023-02-28T08:26:18;4.92;82.24
68912;SHT31;55953;51.650;-0.522;2023-02-28T08:28:46;4.97;82.29
68912;SHT31;55953;51.650;-0.522;2023-02-28T08:31:15;5.03;82.08
68912;SHT31;55953;51.650;-0.522;2023-02-28T08:33:44;5.01;82.22
68912;SHT31;55953;51.650;-0.522;2023-02-28T08:36:13;5.04;82.31
68912;SHT31;55953;51.650;-0.522;2023-02-28T08:38:41;5.05;82.16
68912;SHT31;55953;51.650;-0.522;2023-02-28T08:41:10;5.13;82.01
68912;SHT31;55953;51.650;-0.522;2023-02-28T08:43:40;5.21;81.90
68912;SHT31;55953;51.650;-0.522;2023-02-28T08:46:10;5.23;81.43
68912;SHT31;55953;51.650;-0.522;2023-02-28T08:48:41;5.27;81.38
68912;SHT31;55953;51.650;-0.522;2023-02-28T08:51:10;5.31;81.44
68912;SHT31;55953;51.650;-0.522;2023-02-28T08:53:44;5.40;81.45
68912;SHT31;55953;51.650;-0.522;2023-02-28T08:56:13;5.45;81.18
68912;SHT31;55953;51.650;-0.522;2023-02-28T08:58:44;5.51;81.03
68912;SHT31;55953;51.650;-0.522;2023-02-28T09:03:42;5.68;80.78
68912;SHT31;55953;51.650;-0.522;2023-02-28T09:06:11;5.71;80.25
68912;SHT31;55953;51.650;-0.522;2023-02-28T09:08:41;5.72;79.64
68912;SHT31;55953;51.650;-0.522;2023-02-28T09:11:09;5.74;79.77
68912;SHT31;55953;51.650;-0.522;2023-02-28T09:13:38;5.81;79.65
68912;SHT31;55953;51.650;-0.522;2023-02-28T09:16:08;5.85;79.23
68912;SHT31;55953;51.650;-0.522;2023-02-28T09:18:40;5.89;78.81
68912;SHT31;55953;51.650;-0.522;2023-02-28T09:21:09;5.95;78.78
68912;SHT31;55953;51.650;-0.522;2023-02-28T09:23:42;5.93;78.96
68912;SHT31;55953;51.650;-0.522;2023-02-28T09:26:16;5.93;78.86
68912;SHT31;55953;51.650;-0.522;2023-02-28T09:28:50;5.96;78.97
68912;SHT31;55953;51.650;-0.522;2023-02-28T09:31:24;5.97;78.76
68912;SHT31;55953;51.650;-0.522;2023-02-28T09:33:56;5.91;78.74
68912;SHT31;55953;51.650;-0.522;2023-02-28T09:36:26;5.91;78.71
68912;SHT31;55953;51.650;-0.522;2023-02-28T09:39:11;5.94;79.04
68912;SHT31;55953;51.650;-0.522;2023-02-28T09:41:43;6.01;79.26
68912;SHT31;55953;51.650;-0.522;2023-02-28T09:47:12;6.03;79.12
68912;SHT31;55953;51.650;-0.522;2023-02-28T09:50:04;6.03;79.42
68912;SHT31;55953;51.650;-0.522;2023-02-28T09:53:29;6.02;79.46
68912;SHT31;55953;51.650;-0.522;2023-02-28T09:56:03;6.15;79.38
68912;SHT31;55953;51.650;-0.522;2023-02-28T09:58:45;6.25;79.12
68912;SHT31;55953;51.650;-0.522;2023-02-28T10:01:23;6.33;78.75
68912;SHT31;55953;51.650;-0.522;2023-02-28T10:04:10;6.46;78.58
68912;SHT31;55953;51.650;-0.522;2023-02-28T10:10:07;6.65;77.26
68912;SHT31;55953;51.650;-0.522;2023-02-28T10:12:46;6.72;77.38
68912;SHT31;55953;51.650;-0.522;2023-02-28T10:15:18;6.69;76.99
68912;SHT31;55953;51.650;-0.522;2023-02-28T10:17:53;6.66;77.02
68912;SHT31;55953;51.650;-0.522;2023-02-28T10:20:37;6.67;77.18
68912;SHT31;55953;51.650;-0.522;2023-02-28T10:23:28;6.67;77.26
68912;SHT31;55953;51.650;-0.522;2023-02-28T10:26:12;6.60;77.27
68912;SHT31;55953;51.650;-0.522;2023-02-28T10:28:44;6.52;77.58
68912;SHT31;55953;51.650;-0.522;2023-02-28T10:31:17;6.48;77.85
68912;SHT31;55953;51.650;-0.522;2023-02-28T10:33:47;6.55;77.92
68912;SHT31;55953;51.650;-0.522;2023-02-28T10:36:17;6.67;77.93
68912;SHT31;55953;51.650;-0.522;2023-02-28T10:38:47;6.74;77.49
68912;SHT31;55953;51.650;-0.522;2023-02-28T10:41:38;6.77;77.40
68912;SHT31;55953;51.650;-0.522;2023-02-28T10:44:14;6.74;77.57
68912;SHT31;55953;51.650;-0.522;2023-02-28T10:46:49;6.75;77.55
68912;SHT31;55953;51.650;-0.522;2023-02-28T10:49:28;6.87;77.67
68912;SHT31;55953;51.650;-0.522;2023-02-28T10:51:57;7.09;77.28
68912;SHT31;55953;51.650;-0.522;2023-02-28T10:54:35;7.27;76.96
68912;SHT31;55953;51.650;-0.522;2023-02-28T10:57:21;7.36;76.12
68912;SHT31;55953;51.650;-0.522;2023-02-28T11:00:08;7.24;75.57
68912;SHT31;55953;51.650;-0.522;2023-02-28T11:02:48;7.18;76.07
68912;SHT31;55953;51.650;-0.522;2023-02-28T11:05:27;7.23;76.08
68912;SHT31;55953;51.650;-0.522;2023-02-28T11:08:12;7.33;75.75
68912;SHT31;55953;51.650;-0.522;2023-02-28T11:10:47;7.37;75.65
68912;SHT31;55953;51.650;-0.522;2023-02-28T11:13:25;7.41;75.45
68912;SHT31;55953;51.650;-0.522;2023-02-28T11:16:00;7.36;75.27
68912;SHT31;55953;51.650;-0.522;2023-02-28T11:21:23;7.25;75.74
68912;SHT31;55953;51.650;-0.522;2023-02-28T11:24:04;7.24;76.14
68912;SHT31;55953;51.650;-0.522;2023-02-28T11:26:54;7.19;76.34
68912;SHT31;55953;51.650;-0.522;2023-02-28T11:29:27;7.15;76.64
68912;SHT31;55953;51.650;-0.522;2023-02-28T11:34:41;7.20;76.63
68912;SHT31;55953;51.650;-0.522;2023-02-28T11:37:14;7.28;76.06
68912;SHT31;55953;51.650;-0.522;2023-02-28T11:39:46;7.21;76.14
68912;SHT31;55953;51.650;-0.522;2023-02-28T11:47:49;7.06;77.41
68912;SHT31;55953;51.650;-0.522;2023-02-28T11:50:42;7.08;77.71
68912;SHT31;55953;51.650;-0.522;2023-02-28T11:56:19;7.12;77.21
68912;SHT31;55953;51.650;-0.522;2023-02-28T12:05:09;7.08;77.28
68912;SHT31;55953;51.650;-0.522;2023-02-28T12:10:57;7.23;77.12
68912;SHT31;55953;51.650;-0.522;2023-02-28T12:20:22;7.73;76.19
68912;SHT31;55953;51.650;-0.522;2023-02-28T12:24:17;7.92;74.98
68912;SHT31;55953;51.650;-0.522;2023-02-28T12:29:13;8.18;74.32
68912;SHT31;55953;51.650;-0.522;2023-02-28T12:32:09;8.13;73.94
68912;SHT31;55953;51.650;-0.522;2023-02-28T12:34:47;8.14;73.83
68912;SHT31;55953;51.650;-0.522;2023-02-28T12:37:22;8.16;74.01
68912;SHT31;55953;51.650;-0.522;2023-02-28T12:40:09;8.01;74.17
68912;SHT31;55953;51.650;-0.522;2023-02-28T12:42:50;7.97;74.36
68912;SHT31;55953;51.650;-0.522;2023-02-28T12:45:42;7.89;74.50
68912;SHT31;55953;51.650;-0.522;2023-02-28T12:48:29;7.77;74.95
68912;SHT31;55953;51.650;-0.522;2023-02-28T12:51:06;7.91;74.92
68912;SHT31;55953;51.650;-0.522;2023-02-28T13:10:48;7.93;74.71
68912;SHT31;55953;51.650;-0.522;2023-02-28T13:13:23;7.84;74.99
68912;SHT31;55953;51.650;-0.522;2023-02-28T13:18:32;8.10;74.47
68912;SHT31;55953;51.650;-0.522;2023-02-28T13:21:26;8.27;74.12
68912;SHT31;55953;51.650;-0.522;2023-02-28T13:23:59;8.42;73.78
68912;SHT31;55953;51.650;-0.522;2023-02-28T13:28:59;8.62;73.27
68912;SHT31;55953;51.650;-0.522;2023-02-28T13:39:58;8.76;72.14
68912;SHT31;55953;51.650;-0.522;2023-02-28T13:47:43;8.55;72.77
68912;SHT31;55953;51.650;-0.522;2023-02-28T13:55:35;8.68;72.85
68912;SHT31;55953;51.650;-0.522;2023-02-28T14:07:05;8.65;73.37
68912;SHT31;55953;51.650;-0.522;2023-02-28T14:09:35;8.72;73.31
68912;SHT31;55953;51.650;-0.522;2023-02-28T14:18:17;8.58;73.85
68912;SHT31;55953;51.650;-0.522;2023-02-28T14:20:59;8.55;73.88
68912;SHT31;55953;51.650;-0.522;2023-02-28T14:35:29;8.52;74.05
68912;SHT31;55953;51.650;-0.522;2023-02-28T14:38:17;8.48;74.15
68912;SHT31;55953;51.650;-0.522;2023-02-28T14:40:52;8.41;74.33
68912;SHT31;55953;51.650;-0.522;2023-02-28T14:43:26;8.44;74.45
68912;SHT31;55953;51.650;-0.522;2023-02-28T14:46:02;8.41;74.45
68912;SHT31;55953;51.650;-0.522;2023-02-28T14:48:33;8.41;74.45
68912;SHT31;55953;51.650;-0.522;2023-02-28T14:51:03;8.40;74.27
68912;SHT31;55953;51.650;-0.522;2023-02-28T14:53:35;8.39;74.22
68912;SHT31;55953;51.650;-0.522;2023-02-28T14:56:04;8.35;74.25
68912;SHT31;55953;51.650;-0.522;2023-02-28T14:58:33;8.33;74.38
68912;SHT31;55953;51.650;-0.522;2023-02-28T15:01:02;8.26;74.37
68912;SHT31;55953;51.650;-0.522;2023-02-28T15:06:05;8.15;74.49
68912;SHT31;55953;51.650;-0.522;2023-02-28T15:08:44;8.16;74.70
68912;SHT31;55953;51.650;-0.522;2023-02-28T15:11:16;8.21;74.65
68912;SHT31;55953;51.650;-0.522;2023-02-28T15:13:50;8.24;74.65
68912;SHT31;55953;51.650;-0.522;2023-02-28T15:16:24;8.22;74.61
68912;SHT31;55953;51.650;-0.522;2023-02-28T15:19:03;8.22;74.64
68912;SHT31;55953;51.650;-0.522;2023-02-28T15:21:39;8.28;74.64
68912;SHT31;55953;51.650;-0.522;2023-02-28T15:24:14;8.27;74.33
68912;SHT31;55953;51.650;-0.522;2023-02-28T15:26:58;8.25;73.94
68912;SHT31;55953;51.650;-0.522;2023-02-28T15:29:32;8.25;73.80
68912;SHT31;55953;51.650;-0.522;2023-02-28T15:32:27;8.30;73.42
68912;SHT31;55953;51.650;-0.522;2023-02-28T15:37:54;8.28;72.87
68912;SHT31;55953;51.650;-0.522;2023-02-28T15:40:50;8.31;72.82
68912;SHT31;55953;51.650;-0.522;2023-02-28T15:45:56;8.31;72.85
68912;SHT31;55953;51.650;-0.522;2023-02-28T15:51:28;8.41;73.10
68912;SHT31;55953;51.650;-0.522;2023-02-28T15:56:38;8.39;72.86
68912;SHT31;55953;51.650;-0.522;2023-02-28T15:59:31;8.43;72.95
68912;SHT31;55953;51.650;-0.522;2023-02-28T16:02:03;8.46;72.45
68912;SHT31;55953;51.650;-0.522;2023-02-28T16:07:36;8.34;72.60
68912;SHT31;55953;51.650;-0.522;2023-02-28T16:10:10;8.36;72.63
68912;SHT31;55953;51.650;-0.522;2023-02-28T16:12:41;8.37;72.19
68912;SHT31;55953;51.650;-0.522;2023-02-28T16:15:25;8.38;72.10
68912;SHT31;55953;51.650;-0.522;2023-02-28T16:17:57;8.29;72.14
68912;SHT31;55953;51.650;-0.522;2023-02-28T16:20:26;8.32;72.25
68912;SHT31;55953;51.650;-0.522;2023-02-28T16:22:57;8.29;72.30
68912;SHT31;55953;51.650;-0.522;2023-02-28T16:25:38;8.24;72.47
68912;SHT31;55953;51.650;-0.522;2023-02-28T16:28:12;8.19;72.70
68912;SHT31;55953;51.650;-0.522;2023-02-28T16:30:52;8.19;72.82
68912;SHT31;55953;51.650;-0.522;2023-02-28T16:33:21;8.11;72.90
68912;SHT31;55953;51.650;-0.522;2023-02-28T16:35:49;8.08;73.22
68912;SHT31;55953;51.650;-0.522;2023-02-28T16:38:17;8.03;73.33
68912;SHT31;55953;51.650;-0.522;2023-02-28T16:40:45;8.03;73.33
68912;SHT31;55953;51.650;-0.522;2023-02-28T16:43:17;8.01;73.11
68912;SHT31;55953;51.650;-0.522;2023-02-28T16:45:56;7.97;72.80
68912;SHT31;55953;51.650;-0.522;2023-02-28T16:48:27;7.98;72.59
68912;SHT31;55953;51.650;-0.522;2023-02-28T16:50:58;7.96;72.54
68912;SHT31;55953;51.650;-0.522;2023-02-28T16:53:25;7.99;72.57
68912;SHT31;55953;51.650;-0.522;2023-02-28T16:55:53;8.00;72.56
68912;SHT31;55953;51.650;-0.522;2023-02-28T16:58:21;8.00;72.48
68912;SHT31;55953;51.650;-0.522;2023-02-28T17:00:52;7.98;72.40
68912;SHT31;55953;51.650;-0.522;2023-02-28T17:03:22;7.92;72.20
68912;SHT31;55953;51.650;-0.522;2023-02-28T17:06:00;7.86;72.07
68912;SHT31;55953;51.650;-0.522;2023-02-28T17:08:29;7.81;72.10
68912;SHT31;55953;51.650;-0.522;2023-02-28T17:10:59;7.78;72.15
68912;SHT31;55953;51.650;-0.522;2023-02-28T17:13:28;7.74;72.22
68912;SHT31;55953;51.650;-0.522;2023-02-28T17:15:57;7.73;72.43
68912;SHT31;55953;51.650;-0.522;2023-02-28T17:18:25;7.68;72.57
68912;SHT31;55953;51.650;-0.522;2023-02-28T17:20:54;7.64;72.48
68912;SHT31;55953;51.650;-0.522;2023-02-28T17:23:21;7.61;72.65
68912;SHT31;55953;51.650;-0.522;2023-02-28T17:25:49;7.57;72.58
68912;SHT31;55953;51.650;-0.522;2023-02-28T17:28:23;7.54;72.44
68912;SHT31;55953;51.650;-0.522;2023-02-28T17:30:51;7.49;72.42
68912;SHT31;55953;51.650;-0.522;2023-02-28T17:33:19;7.51;72.54
68912;SHT31;55953;51.650;-0.522;2023-02-28T17:35:47;7.50;72.49
68912;SHT31;55953;51.650;-0.522;2023-02-28T17:38:16;7.45;72.39
68912;SHT31;55953;51.650;-0.522;2023-02-28T17:40:46;7.38;72.42
68912;SHT31;55953;51.650;-0.522;2023-02-28T17:43:14;7.38;72.51
68912;SHT31;55953;51.650;-0.522;2023-02-28T17:45:42;7.38;72.54
68912;SHT31;55953;51.650;-0.522;2023-02-28T17:48:11;7.37;72.60
68912;SHT31;55953;51.650;-0.522;2023-02-28T17:50:39;7.36;72.57
68912;SHT31;55953;51.650;-0.522;2023-02-28T17:53:07;7.33;72.58
68912;SHT31;55953;51.650;-0.522;2023-02-28T17:55:35;7.33;72.70
68912;SHT31;55953;51.650;-0.522;2023-02-28T17:58:03;7.34;72.71
68912;SHT31;55953;51.650;-0.522;2023-02-28T18:00:31;7.30;72.61
68912;SHT31;55953;51.650;-0.522;2023-02-28T18:03:02;7.32;72.65
68912;SHT31;55953;51.650;-0.522;2023-02-28T18:05:30;7.30;72.74
68912;SHT31;55953;51.650;-0.522;2023-02-28T18:07:59;7.30;72.98
68912;SHT31;55953;51.650;-0.522;2023-02-28T18:10:27;7.26;73.16
68912;SHT31;55953;51.650;-0.522;2023-02-28T18:12:56;7.28;73.30
68912;SHT31;55953;51.650;-0.522;2023-02-28T18:15:24;7.29;73.43
68912;SHT31;55953;51.650;-0.522;2023-02-28T18:17:51;7.29;73.64
68912;SHT31;55953;51.650;-0.522;2023-02-28T18:20:19;7.24;74.02
68912;SHT31;55953;51.650;-0.522;2023-02-28T18:22:47;7.23;74.32
68912;SHT31;55953;51.650;-0.522;2023-02-28T18:25:15;7.18;74.66
68912;SHT31;55953;51.650;-0.522;2023-02-28T18:27:44;7.14;74.80
68912;SHT31;55953;51.650;-0.522;2023-02-28T18:30:26;7.13;74.90
68912;SHT31;55953;51.650;-0.522;2023-02-28T18:32:59;7.08;74.72
68912;SHT31;55953;51.650;-0.522;2023-02-28T18:35:29;7.07;74.84
68912;SHT31;55953;51.650;-0.522;2023-02-28T18:38:16;7.07;74.92
68912;SHT31;55953;51.650;-0.522;2023-02-28T18:40:55;7.06;75.06
68912;SHT31;55953;51.650;-0.522;2023-02-28T18:43:27;6.98;75.33
68912;SHT31;55953;51.650;-0.522;2023-02-28T18:45:56;7.00;75.32
68912;SHT31;55953;51.650;-0.522;2023-02-28T18:48:24;6.98;75.26
68912;SHT31;55953;51.650;-0.522;2023-02-28T18:50:52;6.93;75.14
68912;SHT31;55953;51.650;-0.522;2023-02-28T18:53:20;6.90;74.48
68912;SHT31;55953;51.650;-0.522;2023-02-28T18:55:48;6.90;74.54